createdAt,value
2023-01-19T00:01:45.345Z,36.13
2023-01-19T00:04:14.789Z,29.52
2023-01-19T00:06:43.050Z,32.03
2023-01-19T00:09:12.482Z,34.42
2023-01-19T00:11:39.797Z,28.08
2023-01-19T00:14:09.974Z,22.80
2023-01-19T00:16:39.170Z,28.05
2023-01-19T00:19:06.118Z,28.15
2023-01-19T00:21:32.906Z,34.78
2023-01-19T00:23:59.875Z,31.17
2023-01-19T00:26:27.041Z,33.80
2023-01-19T00:28:53.926Z,31.88
2023-01-19T00:31:22.080Z,29.25
2023-01-19T00:33:51.973Z,29.83
2023-01-19T00:36:22.768Z,30.83
2023-01-19T00:38:50.931Z,33.22
2023-01-19T00:41:18.291Z,33.53
2023-01-19T00:43:45.688Z,29.48
2023-01-19T00:46:12.598Z,34.22
2023-01-19T00:48:39.780Z,35.50
2023-01-19T00:51:06.658Z,38.10
2023-01-19T00:53:37.567Z,26.83
2023-01-19T00:56:07.425Z,25.52
2023-01-19T00:58:34.312Z,30.50
2023-01-19T01:01:03.890Z,39.67
2023-01-19T01:03:33.002Z,21.92
2023-01-19T01:05:59.865Z,34.00
2023-01-19T01:08:26.680Z,37.22
2023-01-19T01:10:56.277Z,35.55
2023-01-19T01:13:27.866Z,34.13
2023-01-19T01:15:57.789Z,34.58
2023-01-19T01:18:26.516Z,28.77
2023-01-19T01:21:02.515Z,39.38
2023-01-19T01:23:29.961Z,28.83
2023-01-19T01:25:57.845Z,34.15
2023-01-19T01:28:25.148Z,38.17
2023-01-19T01:30:57.514Z,21.67
2023-01-19T01:33:41.059Z,29.38
2023-01-19T01:36:12.316Z,29.55
2023-01-19T01:38:40.543Z,27.70
2023-01-19T01:41:08.475Z,24.50
2023-01-19T01:43:54.880Z,30.02
2023-01-19T01:46:31.732Z,20.58
2023-01-19T01:49:05.211Z,24.65
2023-01-19T01:51:41.868Z,31.98
2023-01-19T01:54:09.813Z,36.13
2023-01-19T01:56:44.977Z,18.35
2023-01-19T01:59:26.252Z,25.50
2023-01-19T02:02:22.981Z,28.92
2023-01-19T02:04:59.383Z,38.40
2023-01-19T02:08:14.401Z,34.42
2023-01-19T02:11:02.991Z,28.35
2023-01-19T02:13:32.903Z,33.35
2023-01-19T02:16:03.409Z,28.70
2023-01-19T02:18:32.259Z,31.30
2023-01-19T02:21:22.878Z,30.23
2023-01-19T02:23:56.411Z,21.23
2023-01-19T02:26:28.403Z,30.60
2023-01-19T02:28:59.981Z,32.37
2023-01-19T02:31:29.541Z,30.98
2023-01-19T02:33:57.425Z,34.40
2023-01-19T02:36:29.018Z,37.08
2023-01-19T02:39:00.222Z,21.15
2023-01-19T02:41:31.376Z,40.95
2023-01-19T02:43:59.172Z,35.00
2023-01-19T02:46:26.183Z,33.60
2023-01-19T02:48:58.250Z,37.55
2023-01-19T02:51:25.518Z,27.40
2023-01-19T02:54:01.344Z,24.92
2023-01-19T02:56:37.234Z,33.00
2023-01-19T02:59:10.137Z,35.92
2023-01-19T03:02:11.393Z,40.92
2023-01-19T03:05:00.332Z,38.85
2023-01-19T03:07:41.795Z,33.00
2023-01-19T03:10:25.262Z,25.45
2023-01-19T03:13:31.277Z,32.00
2023-01-19T03:16:13.284Z,32.40
2023-01-19T03:18:43.913Z,39.17
2023-01-19T03:21:16.113Z,29.05
2023-01-19T03:23:46.789Z,42.35
2023-01-19T03:26:19.159Z,35.85
2023-01-19T03:28:49.029Z,34.33
2023-01-19T03:31:21.184Z,30.77
2023-01-19T03:33:55.365Z,33.80
2023-01-19T03:36:31.503Z,32.35
2023-01-19T03:39:01.292Z,41.33
2023-01-19T03:41:30.576Z,33.85
2023-01-19T03:43:59.032Z,32.60
2023-01-19T03:46:27.227Z,32.63
2023-01-19T03:48:57.087Z,31.40
2023-01-19T03:51:24.349Z,39.13
2023-01-19T03:53:52.214Z,28.40
2023-01-19T03:56:22.090Z,36.88
2023-01-19T03:58:50.445Z,37.03
2023-01-19T04:01:18.698Z,36.85
2023-01-19T04:03:47.221Z,29.02
2023-01-19T04:06:14.417Z,32.47
2023-01-19T04:08:41.326Z,35.72
2023-01-19T04:11:08.458Z,28.85
2023-01-19T04:13:36.693Z,28.35
2023-01-19T04:16:05.725Z,32.47
2023-01-19T04:18:34.889Z,37.80
2023-01-19T04:21:03.357Z,30.50
2023-01-19T04:23:30.872Z,33.03
2023-01-19T04:25:59.921Z,26.30
2023-01-19T04:28:27.269Z,39.03
2023-01-19T04:30:54.609Z,41.33
2023-01-19T04:33:26.431Z,42.22
2023-01-19T04:35:54.601Z,31.33
2023-01-19T04:38:22.619Z,42.03
2023-01-19T04:40:50.774Z,47.47
2023-01-19T04:43:17.559Z,43.47
2023-01-19T04:45:48.672Z,28.50
2023-01-19T04:48:19.725Z,42.22
2023-01-19T04:50:47.292Z,42.80
2023-01-19T04:53:18.447Z,43.42
2023-01-19T04:55:46.114Z,44.25
2023-01-19T04:58:13.140Z,42.85
2023-01-19T05:00:40.159Z,46.53
2023-01-19T05:03:09.434Z,49.63
2023-01-19T05:05:36.576Z,46.53
2023-01-19T05:08:03.585Z,50.85
2023-01-19T05:10:30.536Z,47.50
2023-01-19T05:12:57.756Z,53.58
2023-01-19T05:15:24.874Z,42.15
2023-01-19T05:17:52.798Z,49.35
2023-01-19T05:20:19.899Z,46.88
2023-01-19T05:22:50.898Z,46.78
2023-01-19T05:25:18.240Z,54.67
2023-01-19T05:27:45.940Z,53.88
2023-01-19T05:30:17.367Z,53.33
2023-01-19T05:32:44.808Z,47.95
2023-01-19T05:35:13.517Z,49.63
2023-01-19T05:37:41.381Z,44.25
2023-01-19T05:40:09.383Z,45.05
2023-01-19T05:42:36.773Z,47.63
2023-01-19T05:45:05.375Z,58.53
2023-01-19T05:47:33.297Z,54.50
2023-01-19T05:50:00.166Z,49.42
2023-01-19T05:52:28.079Z,43.47
2023-01-19T05:54:55.245Z,54.03
2023-01-19T05:57:23.807Z,45.58
2023-01-19T05:59:51.774Z,38.17
2023-01-19T06:02:20.769Z,49.58
2023-01-19T06:04:47.900Z,44.85
2023-01-19T06:07:17.157Z,42.38
2023-01-19T06:09:44.066Z,46.75
2023-01-19T06:12:11.119Z,55.70
2023-01-19T06:14:39.988Z,41.35
2023-01-19T06:17:07.944Z,42.05
2023-01-19T06:19:35.094Z,44.20
2023-01-19T06:22:03.273Z,40.28
2023-01-19T06:24:30.720Z,43.65
2023-01-19T06:27:02.739Z,49.55
2023-01-19T06:29:29.935Z,41.83
2023-01-19T06:31:56.819Z,37.13
2023-01-19T06:34:28.801Z,54.72
2023-01-19T06:36:56.804Z,41.42
2023-01-19T06:39:24.662Z,49.80
2023-01-19T06:41:52.910Z,42.65
2023-01-19T06:44:29.481Z,45.33
2023-01-19T06:47:15.568Z,55.42
2023-01-19T06:49:45.255Z,52.83
2023-01-19T06:52:16.919Z,45.67
2023-01-19T06:54:46.191Z,29.47
2023-01-19T06:57:14.318Z,38.83
2023-01-19T06:59:41.673Z,50.03
2023-01-19T07:02:27.936Z,45.42
2023-01-19T07:04:57.495Z,51.83
2023-01-19T07:07:24.402Z,40.95
2023-01-19T07:09:54.041Z,45.53
2023-01-19T07:12:23.466Z,52.83
2023-01-19T07:14:50.757Z,37.35
2023-01-19T07:17:17.971Z,49.78
2023-01-19T07:19:46.585Z,46.78
2023-01-19T07:22:13.632Z,46.10
2023-01-19T07:24:42.479Z,44.95
2023-01-19T07:27:11.414Z,48.70
2023-01-19T07:29:40.330Z,38.47
2023-01-19T07:32:07.547Z,46.25
2023-01-19T07:34:36.039Z,56.90
2023-01-19T07:37:04.506Z,56.17
2023-01-19T07:39:32.391Z,30.00
2023-01-19T07:41:59.328Z,55.20
2023-01-19T07:44:27.007Z,48.35
2023-01-19T07:46:54.611Z,48.72
2023-01-19T07:49:29.609Z,48.45
2023-01-19T07:51:58.807Z,47.65
2023-01-19T07:54:25.649Z,48.60
2023-01-19T07:56:55.001Z,53.40
2023-01-19T07:59:22.329Z,47.95
2023-01-19T08:01:54.295Z,57.78
2023-01-19T08:04:22.368Z,53.85
2023-01-19T08:06:56.684Z,50.22
2023-01-19T08:09:24.474Z,51.25
2023-01-19T08:11:51.616Z,39.47
2023-01-19T08:14:19.126Z,50.42
2023-01-19T08:16:48.777Z,41.00
2023-01-19T08:19:15.996Z,48.40
2023-01-19T08:21:43.182Z,51.80
2023-01-19T08:24:18.617Z,49.47
2023-01-19T08:26:49.753Z,55.58
2023-01-19T08:29:16.924Z,45.30
2023-01-19T08:31:44.273Z,44.30
2023-01-19T08:34:12.311Z,49.05
2023-01-19T08:36:41.315Z,53.08
2023-01-19T08:39:12.484Z,47.38
2023-01-19T08:41:56.300Z,40.15
2023-01-19T08:44:29.041Z,48.33
2023-01-19T08:49:34.205Z,36.47
2023-01-19T08:52:04.198Z,51.83
2023-01-19T08:54:36.595Z,43.70
2023-01-19T08:57:06.796Z,47.80
2023-01-19T08:59:37.628Z,40.75
2023-01-19T09:02:06.202Z,56.15
2023-01-19T09:04:45.953Z,48.53
2023-01-19T09:07:15.712Z,39.03
2023-01-19T09:09:48.381Z,47.38
2023-01-19T09:12:18.596Z,46.33
2023-01-19T09:14:45.914Z,53.58
2023-01-19T09:17:14.704Z,54.60
2023-01-19T09:19:47.301Z,47.55
2023-01-19T09:22:14.724Z,45.45
2023-01-19T09:24:45.120Z,51.72
2023-01-19T09:35:55.767Z,53.25
2023-01-19T09:38:24.994Z,48.17
2023-01-19T09:40:57.519Z,52.13
2023-01-19T09:43:47.703Z,51.60
2023-01-19T09:46:35.517Z,43.30
2023-01-19T09:49:16.696Z,49.20
2023-01-19T09:51:50.948Z,29.50
2023-01-19T09:54:41.347Z,48.58
2023-01-19T09:57:15.618Z,47.63
2023-01-19T09:59:47.822Z,51.92
2023-01-19T10:02:43.470Z,45.10
2023-01-19T10:05:25.469Z,46.45
2023-01-19T10:08:18.369Z,52.43
2023-01-19T10:10:53.489Z,47.53
2023-01-19T10:13:45.296Z,43.40
2023-01-19T10:16:48.570Z,43.63
2023-01-19T10:19:47.027Z,46.65
2023-01-19T10:22:37.297Z,41.95
2023-01-19T10:28:28.057Z,45.47
2023-01-19T10:30:56.555Z,49.42
2023-01-19T10:33:23.682Z,38.95
2023-01-19T10:35:52.868Z,47.65
2023-01-19T10:38:22.264Z,35.55
2023-01-19T10:40:58.636Z,49.35
2023-01-19T10:43:44.451Z,48.83
2023-01-19T10:46:28.195Z,48.10
2023-01-19T10:48:58.565Z,49.20
2023-01-19T10:51:25.773Z,43.33
2023-01-19T10:54:02.037Z,48.47
2023-01-19T10:56:41.092Z,40.00
2023-01-19T10:59:33.247Z,50.67
2023-01-19T11:02:20.758Z,37.17
2023-01-19T11:04:53.268Z,48.00
2023-01-19T11:07:40.770Z,50.05
2023-01-19T11:10:22.585Z,49.05
2023-01-19T11:13:13.702Z,46.53
2023-01-19T11:15:52.830Z,49.95
2023-01-19T11:18:33.051Z,52.47
2023-01-19T11:21:34.667Z,46.67
2023-01-19T11:24:10.833Z,50.08
2023-01-19T11:26:58.043Z,43.97
2023-01-19T11:29:26.802Z,38.72
2023-01-19T11:32:09.470Z,40.13
2023-01-19T11:34:39.893Z,46.60
2023-01-19T11:37:33.172Z,45.30
2023-01-19T11:40:05.727Z,47.05
2023-01-19T11:42:34.207Z,43.53
2023-01-19T11:45:19.734Z,37.22
2023-01-19T11:47:52.676Z,46.40
2023-01-19T11:50:40.866Z,43.33
2023-01-19T11:53:18.982Z,42.63
2023-01-19T11:55:57.477Z,36.55
2023-01-19T11:58:27.201Z,40.33
2023-01-19T12:01:06.256Z,42.10
2023-01-19T12:03:45.470Z,39.50
2023-01-19T12:06:18.450Z,39.78
2023-01-19T12:09:17.079Z,31.65
2023-01-19T12:11:57.572Z,35.75
2023-01-19T12:14:36.565Z,34.97
2023-01-19T12:17:12.117Z,37.00
2023-01-19T12:19:51.208Z,39.72
2023-01-19T12:22:21.425Z,42.35
2023-01-19T12:24:55.899Z,34.55
2023-01-19T12:27:44.029Z,34.38
2023-01-19T12:30:25.600Z,38.60
2023-01-19T12:33:12.665Z,33.33
2023-01-19T12:36:10.057Z,39.85
2023-01-19T12:38:54.290Z,35.78
2023-01-19T12:41:22.764Z,33.60
2023-01-19T12:44:11.944Z,29.77
2023-01-19T12:46:55.236Z,33.67
2023-01-19T12:49:40.152Z,36.65
2023-01-19T12:52:29.582Z,39.92
2023-01-19T12:55:15.046Z,32.40
2023-01-19T12:58:12.961Z,34.08
2023-01-19T13:00:43.224Z,34.72
2023-01-19T13:03:19.667Z,43.85
2023-01-19T13:05:56.802Z,32.22
2023-01-19T13:08:30.457Z,38.10
2023-01-19T13:11:00.605Z,46.65
2023-01-19T13:13:33.876Z,33.22
2023-01-19T13:16:19.744Z,37.95
2023-01-19T13:18:54.809Z,36.00
2023-01-19T13:21:44.664Z,35.08
2023-01-19T13:24:25.415Z,39.08
2023-01-19T13:26:57.554Z,33.95
2023-01-19T13:29:40.586Z,31.65
2023-01-19T13:32:18.699Z,30.73
2023-01-19T13:34:52.716Z,36.95
2023-01-19T13:37:26.046Z,33.28
2023-01-19T13:39:54.720Z,30.50
2023-01-19T13:42:32.047Z,36.20
2023-01-19T13:45:03.761Z,39.15
2023-01-19T13:47:46.414Z,29.23
2023-01-19T13:50:30.040Z,25.80
2023-01-19T13:52:58.998Z,27.42
2023-01-19T13:55:28.366Z,31.08
2023-01-19T13:57:58.935Z,26.42
2023-01-19T14:00:28.754Z,22.85
2023-01-19T14:03:14.640Z,28.50
2023-01-19T14:05:43.737Z,28.35
2023-01-19T14:08:18.633Z,25.42
2023-01-19T14:11:00.636Z,25.58
2023-01-19T14:13:33.533Z,27.83
2023-01-19T14:16:21.073Z,25.92
2023-01-19T14:19:04.321Z,25.17
2023-01-19T14:21:41.670Z,29.08
2023-01-19T14:24:09.940Z,23.27
2023-01-19T14:26:49.214Z,25.00
2023-01-19T14:29:38.532Z,32.65
2023-01-19T14:32:16.360Z,24.67
2023-01-19T14:35:14.093Z,23.42
2023-01-19T14:37:49.331Z,24.52
2023-01-19T14:40:24.517Z,28.45
2023-01-19T14:43:06.674Z,26.02
2023-01-19T14:46:00.020Z,25.27
2023-01-19T14:48:50.356Z,28.90
2023-01-19T14:51:20.617Z,25.70
2023-01-19T14:53:56.805Z,29.60
2023-01-19T14:56:28.479Z,25.52
2023-01-19T14:58:57.769Z,30.40
2023-01-19T15:01:35.580Z,22.27
2023-01-19T15:04:17.681Z,29.33
2023-01-19T15:06:46.255Z,28.13
2023-01-19T15:09:17.986Z,29.58
2023-01-19T15:11:49.093Z,35.38
2023-01-19T15:14:18.105Z,32.97
2023-01-19T15:16:45.713Z,37.13
2023-01-19T15:19:16.243Z,34.10
2023-01-19T15:21:46.355Z,37.40
2023-01-19T15:24:18.090Z,36.22
2023-01-19T15:26:46.214Z,39.08
2023-01-19T15:29:21.618Z,37.95
2023-01-19T15:31:52.153Z,38.20
2023-01-19T15:34:21.595Z,35.90
2023-01-19T15:36:48.718Z,33.33
2023-01-19T15:39:15.657Z,39.80
2023-01-19T15:41:42.741Z,41.00
2023-01-19T15:44:11.716Z,40.33
2023-01-19T15:46:42.082Z,37.88
2023-01-19T15:49:09.145Z,31.98
2023-01-19T15:51:39.740Z,33.80
2023-01-19T15:54:10.233Z,37.30
2023-01-19T15:56:37.204Z,30.17
2023-01-19T15:59:06.538Z,32.10
2023-01-19T16:01:37.194Z,39.13
2023-01-19T16:04:07.771Z,33.42
2023-01-19T16:06:39.081Z,33.45
2023-01-19T16:09:07.805Z,33.50
2023-01-19T16:11:46.384Z,35.30
2023-01-19T16:14:13.453Z,34.80
2023-01-19T16:16:51.952Z,36.03
2023-01-19T16:19:19.380Z,27.90
2023-01-19T16:21:52.038Z,35.50
2023-01-19T16:26:48.167Z,37.83
2023-01-19T16:29:17.858Z,32.03
2023-01-19T16:31:47.494Z,31.92
2023-01-19T16:34:15.863Z,30.48
2023-01-19T16:36:47.436Z,30.95
2023-01-19T16:39:17.573Z,33.33
2023-01-19T16:41:45.904Z,33.42
2023-01-19T16:44:18.977Z,35.22
2023-01-19T16:46:50.171Z,31.52
2023-01-19T16:49:19.711Z,37.55
2023-01-19T16:51:50.260Z,36.65
2023-01-19T16:54:21.963Z,33.72
2023-01-19T16:56:51.049Z,35.47
2023-01-19T16:59:22.358Z,32.83
2023-01-19T17:01:52.861Z,38.25
2023-01-19T17:04:22.681Z,46.88
2023-01-19T17:06:51.151Z,41.53
2023-01-19T17:09:18.835Z,41.65
2023-01-19T17:11:47.405Z,31.45
2023-01-19T17:14:17.935Z,35.80
2023-01-19T17:16:49.972Z,31.27
2023-01-19T17:19:21.013Z,27.67
2023-01-19T17:21:49.965Z,36.67
2023-01-19T17:24:18.105Z,26.10
2023-01-19T17:26:46.052Z,33.78
2023-01-19T17:29:18.487Z,37.17
2023-01-19T17:31:52.840Z,37.03
2023-01-19T17:34:19.840Z,37.60
2023-01-19T17:36:46.906Z,38.10
2023-01-19T17:39:19.328Z,43.05
2023-01-19T17:41:50.357Z,39.97
2023-01-19T17:44:21.767Z,43.08
2023-01-19T17:46:50.413Z,37.65
2023-01-19T17:49:21.051Z,39.45
2023-01-19T17:51:56.997Z,42.97
2023-01-19T17:54:27.339Z,37.85
2023-01-19T17:56:56.261Z,37.72
2023-01-19T17:59:33.020Z,39.05
2023-01-19T18:02:02.801Z,39.60
2023-01-19T18:04:33.946Z,36.05
2023-01-19T18:07:01.121Z,35.42
2023-01-19T18:09:29.407Z,38.47
2023-01-19T18:12:01.670Z,29.80
2023-01-19T18:14:30.124Z,33.65
2023-01-19T18:16:58.556Z,39.20
2023-01-19T18:22:15.594Z,40.67
2023-01-19T18:24:49.698Z,38.83
2023-01-19T18:30:02.343Z,39.97
2023-01-19T18:32:32.854Z,40.38
2023-01-19T18:35:02.416Z,42.72
2023-01-19T18:37:29.996Z,40.60
2023-01-19T18:40:02.369Z,45.13
2023-01-19T18:42:39.355Z,42.25
2023-01-19T18:45:17.491Z,43.47
2023-01-19T18:47:44.861Z,43.63
2023-01-19T18:50:21.380Z,45.03
2023-01-19T18:52:51.644Z,47.30
2023-01-19T18:55:22.967Z,44.03
2023-01-19T18:57:50.847Z,42.45
2023-01-19T19:00:20.897Z,51.53
2023-01-19T19:02:50.950Z,48.92
2023-01-19T19:05:20.287Z,51.17
2023-01-19T19:07:51.758Z,49.88
2023-01-19T19:10:25.571Z,46.92
2023-01-19T19:13:06.270Z,53.25
2023-01-19T19:15:34.231Z,50.25
2023-01-19T19:18:02.330Z,54.83
2023-01-19T19:20:30.684Z,57.35
2023-01-19T19:23:02.771Z,53.13
2023-01-19T19:25:29.928Z,54.28
2023-01-19T19:27:57.651Z,58.17
2023-01-19T19:30:35.271Z,51.88
2023-01-19T19:34:24.238Z,54.40
2023-01-19T19:37:01.555Z,53.53
2023-01-19T19:39:31.399Z,56.55
2023-01-19T19:44:48.640Z,60.30
2023-01-19T19:47:19.767Z,61.00
2023-01-19T19:49:48.028Z,59.65
2023-01-19T19:52:15.666Z,59.47
2023-01-19T19:54:50.238Z,51.92
2023-01-19T19:57:23.966Z,59.67
2023-01-19T20:00:00.208Z,52.75
2023-01-19T20:02:29.828Z,53.63
2023-01-19T20:05:05.565Z,52.65
2023-01-19T20:07:35.855Z,55.47
2023-01-19T20:10:10.590Z,47.78
2023-01-19T20:12:45.611Z,59.08
2023-01-19T20:15:16.406Z,57.65
2023-01-19T20:17:43.654Z,52.38
2023-01-19T20:20:18.483Z,62.88
2023-01-19T20:22:48.092Z,58.38
2023-01-19T20:25:19.290Z,60.83
2023-01-19T20:27:56.356Z,56.22
2023-01-19T20:33:09.691Z,54.90
2023-01-19T20:35:39.346Z,56.45
2023-01-19T20:38:11.157Z,54.10
2023-01-19T20:40:43.415Z,53.55
2023-01-19T20:43:14.955Z,51.83
2023-01-19T20:45:54.033Z,52.92
2023-01-19T20:51:17.173Z,55.63
2023-01-19T20:53:48.462Z,61.45
2023-01-19T20:56:16.346Z,57.83
2023-01-19T20:58:51.007Z,55.10
2023-01-19T21:01:39.069Z,56.53
2023-01-19T21:04:11.605Z,60.75
2023-01-19T21:09:25.239Z,52.72
2023-01-19T21:23:48.899Z,64.20
2023-01-19T21:29:07.845Z,59.10
2023-01-19T21:31:39.572Z,65.63
2023-01-19T21:34:09.683Z,62.07
2023-01-19T21:36:40.772Z,60.70
2023-01-19T21:39:28.748Z,66.05
2023-01-19T21:46:44.523Z,65.28
2023-01-19T21:49:32.225Z,58.92
2023-01-19T21:52:04.317Z,63.47
2023-01-19T21:54:35.980Z,58.47
2023-01-19T21:57:12.458Z,58.75
2023-01-19T22:02:52.090Z,58.22
2023-01-19T22:05:47.700Z,58.50
2023-01-19T22:08:23.063Z,63.17
2023-01-19T22:10:53.436Z,57.15
2023-01-19T22:16:12.872Z,47.05
2023-01-19T22:18:45.487Z,58.08
2023-01-19T22:21:20.216Z,54.33
2023-01-19T22:24:05.569Z,63.53
2023-01-19T22:26:54.393Z,57.67
2023-01-19T22:29:29.379Z,49.53
2023-01-19T22:32:02.620Z,58.70
2023-01-19T22:34:33.174Z,60.03
2023-01-19T22:37:08.486Z,54.55
2023-01-19T22:42:53.893Z,56.13
2023-01-19T22:45:22.360Z,56.38
2023-01-19T22:47:49.805Z,55.40
2023-01-19T22:50:21.863Z,60.80
2023-01-19T22:55:40.703Z,52.00
2023-01-19T22:58:16.908Z,56.65
2023-01-19T23:00:50.695Z,52.70
2023-01-19T23:03:20.742Z,56.20
2023-01-19T23:05:59.120Z,51.15
2023-01-19T23:08:27.602Z,47.88
2023-01-19T23:11:34.921Z,35.22
2023-01-19T23:14:11.720Z,47.50
2023-01-19T23:16:43.997Z,43.78
2023-01-19T23:22:22.999Z,39.22
2023-01-19T23:24:54.287Z,45.70
2023-01-19T23:27:24.153Z,45.05
2023-01-19T23:29:53.906Z,51.63
2023-01-19T23:32:28.697Z,49.35
2023-01-19T23:35:02.879Z,53.45
2023-01-19T23:37:35.333Z,51.10
2023-01-19T23:40:19.065Z,55.03
2023-01-19T23:42:57.693Z,57.28
2023-01-19T23:45:57.128Z,65.20
2023-01-19T23:48:44.875Z,63.05
2023-01-19T23:51:29.933Z,68.85
2023-01-19T23:57:19.254Z,61.20
